sensor_id;sensor_type;location;lat;lon;timestamp;P1;durP1;ratioP1;P2;durP2;ratioP2
48751;SDS011;34544;48.836;9.174;2024-01-30T00:01:25;20.95;;;10.18;;
48751;SDS011;34544;48.836;9.174;2024-01-30T00:03:51;15.38;;;8.57;;
48751;SDS011;34544;48.836;9.174;2024-01-30T00:06:20;22.30;;;10.77;;
48751;SDS011;34544;48.836;9.174;2024-01-30T00:08:46;22.00;;;10.27;;
48751;SDS011;34544;48.836;9.174;2024-01-30T00:11:14;17.15;;;10.40;;
48751;SDS011;34544;48.836;9.174;2024-01-30T00:13:40;19.55;;;9.73;;
48751;SDS011;34544;48.836;9.174;2024-01-30T00:16:06;17.70;;;9.82;;
48751;SDS011;34544;48.836;9.174;2024-01-30T00:18:32;20.13;;;10.65;;
48751;SDS011;34544;48.836;9.174;2024-01-30T00:20:58;16.80;;;8.93;;
48751;SDS011;34544;48.836;9.174;2024-01-30T00:23:23;18.23;;;9.50;;
48751;SDS011;34544;48.836;9.174;2024-01-30T00:25:49;15.15;;;9.07;;
48751;SDS011;34544;48.836;9.174;2024-01-30T00:28:16;14.93;;;9.20;;
48751;SDS011;34544;48.836;9.174;2024-01-30T00:30:41;22.13;;;10.88;;
48751;SDS011;34544;48.836;9.174;2024-01-30T00:33:08;19.33;;;10.02;;
48751;SDS011;34544;48.836;9.174;2024-01-30T00:35:34;24.38;;;9.15;;
48751;SDS011;34544;48.836;9.174;2024-01-30T00:38:00;17.02;;;9.65;;
48751;SDS011;34544;48.836;9.174;2024-01-30T00:40:26;16.60;;;10.07;;
48751;SDS011;34544;48.836;9.174;2024-01-30T00:42:51;20.30;;;10.20;;
48751;SDS011;34544;48.836;9.174;2024-01-30T00:45:17;18.48;;;9.65;;
48751;SDS011;34544;48.836;9.174;2024-01-30T00:47:43;15.63;;;9.63;;
48751;SDS011;34544;48.836;9.174;2024-01-30T00:50:09;18.77;;;10.52;;
48751;SDS011;34544;48.836;9.174;2024-01-30T00:52:35;14.77;;;9.07;;
48751;SDS011;34544;48.836;9.174;2024-01-30T00:55:01;14.68;;;9.02;;
48751;SDS011;34544;48.836;9.174;2024-01-30T00:57:28;19.23;;;10.38;;
48751;SDS011;34544;48.836;9.174;2024-01-30T00:59:53;19.02;;;9.52;;
48751;SDS011;34544;48.836;9.174;2024-01-30T01:02:19;20.35;;;9.02;;
48751;SDS011;34544;48.836;9.174;2024-01-30T01:04:45;14.05;;;9.35;;
48751;SDS011;34544;48.836;9.174;2024-01-30T01:07:11;16.42;;;9.75;;
48751;SDS011;34544;48.836;9.174;2024-01-30T01:09:37;16.27;;;8.60;;
48751;SDS011;34544;48.836;9.174;2024-01-30T01:12:02;16.08;;;8.63;;
48751;SDS011;34544;48.836;9.174;2024-01-30T01:14:28;16.40;;;9.50;;
48751;SDS011;34544;48.836;9.174;2024-01-30T01:16:54;16.25;;;9.35;;
48751;SDS011;34544;48.836;9.174;2024-01-30T01:19:20;15.50;;;8.35;;
48751;SDS011;34544;48.836;9.174;2024-01-30T01:21:46;18.60;;;9.77;;
48751;SDS011;34544;48.836;9.174;2024-01-30T01:24:12;15.48;;;8.77;;
48751;SDS011;34544;48.836;9.174;2024-01-30T01:26:37;19.10;;;9.98;;
48751;SDS011;34544;48.836;9.174;2024-01-30T01:29:03;15.60;;;9.20;;
48751;SDS011;34544;48.836;9.174;2024-01-30T01:31:38;19.48;;;10.85;;
48751;SDS011;34544;48.836;9.174;2024-01-30T01:34:11;14.15;;;8.93;;
48751;SDS011;34544;48.836;9.174;2024-01-30T01:36:38;19.55;;;8.88;;
48751;SDS011;34544;48.836;9.174;2024-01-30T01:39:04;21.15;;;9.57;;
48751;SDS011;34544;48.836;9.174;2024-01-30T01:41:30;18.88;;;9.45;;
48751;SDS011;34544;48.836;9.174;2024-01-30T01:43:57;19.42;;;10.18;;
48751;SDS011;34544;48.836;9.174;2024-01-30T01:46:22;15.85;;;9.32;;
48751;SDS011;34544;48.836;9.174;2024-01-30T01:48:49;16.90;;;10.18;;
48751;SDS011;34544;48.836;9.174;2024-01-30T01:51:15;16.33;;;8.73;;
48751;SDS011;34544;48.836;9.174;2024-01-30T01:53:41;18.08;;;9.57;;
48751;SDS011;34544;48.836;9.174;2024-01-30T01:56:07;17.95;;;10.30;;
48751;SDS011;34544;48.836;9.174;2024-01-30T01:58:33;18.00;;;9.40;;
48751;SDS011;34544;48.836;9.174;2024-01-30T02:01:00;16.65;;;9.00;;
48751;SDS011;34544;48.836;9.174;2024-01-30T02:03:27;15.43;;;9.35;;
48751;SDS011;34544;48.836;9.174;2024-01-30T02:05:53;17.33;;;9.38;;
48751;SDS011;34544;48.836;9.174;2024-01-30T02:08:20;15.40;;;9.10;;
48751;SDS011;34544;48.836;9.174;2024-01-30T02:10:46;18.60;;;9.52;;
48751;SDS011;34544;48.836;9.174;2024-01-30T02:13:11;14.52;;;9.05;;
48751;SDS011;34544;48.836;9.174;2024-01-30T02:15:37;22.42;;;9.73;;
48751;SDS011;34544;48.836;9.174;2024-01-30T02:18:03;16.77;;;9.40;;
48751;SDS011;34544;48.836;9.174;2024-01-30T02:20:28;15.57;;;9.90;;
48751;SDS011;34544;48.836;9.174;2024-01-30T02:22:57;17.90;;;10.48;;
48751;SDS011;34544;48.836;9.174;2024-01-30T02:25:33;14.70;;;9.23;;
48751;SDS011;34544;48.836;9.174;2024-01-30T02:28:09;19.75;;;9.82;;
48751;SDS011;34544;48.836;9.174;2024-01-30T02:30:38;17.52;;;11.02;;
48751;SDS011;34544;48.836;9.174;2024-01-30T02:33:04;19.40;;;11.52;;
48751;SDS011;34544;48.836;9.174;2024-01-30T02:35:30;21.08;;;10.82;;
48751;SDS011;34544;48.836;9.174;2024-01-30T02:37:56;16.63;;;10.48;;
48751;SDS011;34544;48.836;9.174;2024-01-30T02:40:21;14.57;;;9.93;;
48751;SDS011;34544;48.836;9.174;2024-01-30T02:42:47;15.07;;;10.00;;
48751;SDS011;34544;48.836;9.174;2024-01-30T02:45:12;22.92;;;10.80;;
48751;SDS011;34544;48.836;9.174;2024-01-30T02:47:38;15.02;;;10.80;;
48751;SDS011;34544;48.836;9.174;2024-01-30T02:50:05;19.10;;;10.45;;
48751;SDS011;34544;48.836;9.174;2024-01-30T02:52:31;17.58;;;10.35;;
48751;SDS011;34544;48.836;9.174;2024-01-30T02:54:57;16.88;;;10.27;;
48751;SDS011;34544;48.836;9.174;2024-01-30T02:57:23;17.95;;;11.35;;
48751;SDS011;34544;48.836;9.174;2024-01-30T02:59:49;16.17;;;10.45;;
48751;SDS011;34544;48.836;9.174;2024-01-30T03:02:15;24.42;;;10.93;;
48751;SDS011;34544;48.836;9.174;2024-01-30T03:04:41;18.77;;;10.75;;
48751;SDS011;34544;48.836;9.174;2024-01-30T03:07:08;19.48;;;10.27;;
48751;SDS011;34544;48.836;9.174;2024-01-30T03:09:33;19.48;;;9.73;;
48751;SDS011;34544;48.836;9.174;2024-01-30T03:12:00;19.35;;;11.63;;
48751;SDS011;34544;48.836;9.174;2024-01-30T03:14:26;18.52;;;10.95;;
48751;SDS011;34544;48.836;9.174;2024-01-30T03:16:51;16.80;;;10.68;;
48751;SDS011;34544;48.836;9.174;2024-01-30T03:19:17;17.05;;;10.73;;
48751;SDS011;34544;48.836;9.174;2024-01-30T03:21:43;17.55;;;10.57;;
48751;SDS011;34544;48.836;9.174;2024-01-30T03:24:09;18.48;;;10.40;;
48751;SDS011;34544;48.836;9.174;2024-01-30T03:26:35;18.92;;;11.88;;
48751;SDS011;34544;48.836;9.174;2024-01-30T03:29:01;16.27;;;11.68;;
48751;SDS011;34544;48.836;9.174;2024-01-30T03:31:26;17.63;;;10.73;;
48751;SDS011;34544;48.836;9.174;2024-01-30T03:33:52;19.42;;;12.10;;
48751;SDS011;34544;48.836;9.174;2024-01-30T03:36:18;17.13;;;10.35;;
48751;SDS011;34544;48.836;9.174;2024-01-30T03:38:44;19.45;;;9.90;;
48751;SDS011;34544;48.836;9.174;2024-01-30T03:41:10;18.13;;;10.75;;
48751;SDS011;34544;48.836;9.174;2024-01-30T03:43:35;17.38;;;10.13;;
48751;SDS011;34544;48.836;9.174;2024-01-30T03:46:02;16.33;;;10.48;;
48751;SDS011;34544;48.836;9.174;2024-01-30T03:48:28;19.50;;;11.23;;
48751;SDS011;34544;48.836;9.174;2024-01-30T03:50:54;16.25;;;10.68;;
48751;SDS011;34544;48.836;9.174;2024-01-30T03:53:20;18.60;;;11.05;;
48751;SDS011;34544;48.836;9.174;2024-01-30T03:55:45;18.75;;;10.07;;
48751;SDS011;34544;48.836;9.174;2024-01-30T03:58:11;15.00;;;9.60;;
48751;SDS011;34544;48.836;9.174;2024-01-30T04:00:37;23.90;;;11.10;;
48751;SDS011;34544;48.836;9.174;2024-01-30T04:03:03;14.57;;;9.32;;
48751;SDS011;34544;48.836;9.174;2024-01-30T04:05:29;22.30;;;10.48;;
48751;SDS011;34544;48.836;9.174;2024-01-30T04:07:55;16.10;;;10.23;;
48751;SDS011;34544;48.836;9.174;2024-01-30T04:10:23;17.45;;;11.27;;
48751;SDS011;34544;48.836;9.174;2024-01-30T04:12:50;21.92;;;10.23;;
48751;SDS011;34544;48.836;9.174;2024-01-30T04:15:16;15.90;;;9.48;;
48751;SDS011;34544;48.836;9.174;2024-01-30T04:17:43;15.82;;;10.35;;
48751;SDS011;34544;48.836;9.174;2024-01-30T04:20:15;15.05;;;9.45;;
48751;SDS011;34544;48.836;9.174;2024-01-30T04:25:07;16.73;;;10.30;;
48751;SDS011;34544;48.836;9.174;2024-01-30T04:27:34;18.13;;;9.82;;
48751;SDS011;34544;48.836;9.174;2024-01-30T04:30:00;24.33;;;10.70;;
48751;SDS011;34544;48.836;9.174;2024-01-30T04:32:26;16.33;;;10.43;;
48751;SDS011;34544;48.836;9.174;2024-01-30T04:34:52;21.38;;;10.57;;
48751;SDS011;34544;48.836;9.174;2024-01-30T04:37:19;13.38;;;9.70;;
48751;SDS011;34544;48.836;9.174;2024-01-30T04:39:45;21.85;;;10.82;;
48751;SDS011;34544;48.836;9.174;2024-01-30T04:42:10;20.65;;;9.80;;
48751;SDS011;34544;48.836;9.174;2024-01-30T04:44:36;17.70;;;10.73;;
48751;SDS011;34544;48.836;9.174;2024-01-30T04:47:02;17.52;;;10.02;;
48751;SDS011;34544;48.836;9.174;2024-01-30T04:49:28;15.38;;;9.30;;
48751;SDS011;34544;48.836;9.174;2024-01-30T04:51:54;17.95;;;10.30;;
48751;SDS011;34544;48.836;9.174;2024-01-30T04:54:20;17.42;;;10.27;;
48751;SDS011;34544;48.836;9.174;2024-01-30T04:56:46;17.63;;;10.35;;
48751;SDS011;34544;48.836;9.174;2024-01-30T04:59:12;15.13;;;10.23;;
48751;SDS011;34544;48.836;9.174;2024-01-30T05:01:37;17.48;;;10.50;;
48751;SDS011;34544;48.836;9.174;2024-01-30T05:04:03;14.68;;;9.68;;
48751;SDS011;34544;48.836;9.174;2024-01-30T05:06:32;22.98;;;10.60;;
48751;SDS011;34544;48.836;9.174;2024-01-30T05:08:58;17.75;;;9.98;;
48751;SDS011;34544;48.836;9.174;2024-01-30T05:11:24;18.88;;;10.32;;
48751;SDS011;34544;48.836;9.174;2024-01-30T05:13:49;16.08;;;11.10;;
48751;SDS011;34544;48.836;9.174;2024-01-30T05:16:15;18.60;;;10.88;;
48751;SDS011;34544;48.836;9.174;2024-01-30T05:18:41;20.67;;;10.68;;
48751;SDS011;34544;48.836;9.174;2024-01-30T05:21:07;15.45;;;10.68;;
48751;SDS011;34544;48.836;9.174;2024-01-30T05:23:33;17.17;;;10.63;;
48751;SDS011;34544;48.836;9.174;2024-01-30T05:25:59;20.67;;;10.35;;
48751;SDS011;34544;48.836;9.174;2024-01-30T05:28:26;25.77;;;12.15;;
48751;SDS011;34544;48.836;9.174;2024-01-30T05:30:52;16.67;;;9.65;;
48751;SDS011;34544;48.836;9.174;2024-01-30T05:33:17;24.45;;;12.02;;
48751;SDS011;34544;48.836;9.174;2024-01-30T05:35:43;13.30;;;9.18;;
48751;SDS011;34544;48.836;9.174;2024-01-30T05:38:08;14.13;;;9.68;;
48751;SDS011;34544;48.836;9.174;2024-01-30T05:40:34;19.73;;;10.80;;
48751;SDS011;34544;48.836;9.174;2024-01-30T05:43:00;17.67;;;10.93;;
48751;SDS011;34544;48.836;9.174;2024-01-30T05:45:27;16.65;;;10.90;;
48751;SDS011;34544;48.836;9.174;2024-01-30T05:47:53;19.45;;;13.07;;
48751;SDS011;34544;48.836;9.174;2024-01-30T05:50:19;13.05;;;9.55;;
48751;SDS011;34544;48.836;9.174;2024-01-30T05:52:45;16.77;;;11.05;;
48751;SDS011;34544;48.836;9.174;2024-01-30T05:55:11;17.40;;;10.98;;
48751;SDS011;34544;48.836;9.174;2024-01-30T05:57:38;18.38;;;11.05;;
48751;SDS011;34544;48.836;9.174;2024-01-30T06:00:04;15.38;;;10.90;;
48751;SDS011;34544;48.836;9.174;2024-01-30T06:02:31;19.15;;;11.45;;
48751;SDS011;34544;48.836;9.174;2024-01-30T06:04:58;19.08;;;12.93;;
48751;SDS011;34544;48.836;9.174;2024-01-30T06:07:23;38.63;;;19.92;;
48751;SDS011;34544;48.836;9.174;2024-01-30T06:09:49;40.47;;;19.77;;
48751;SDS011;34544;48.836;9.174;2024-01-30T06:12:14;35.33;;;19.48;;
48751;SDS011;34544;48.836;9.174;2024-01-30T06:14:40;33.97;;;16.60;;
48751;SDS011;34544;48.836;9.174;2024-01-30T06:17:08;26.42;;;14.98;;
48751;SDS011;34544;48.836;9.174;2024-01-30T06:19:34;30.85;;;16.95;;
48751;SDS011;34544;48.836;9.174;2024-01-30T06:22:00;33.63;;;19.08;;
48751;SDS011;34544;48.836;9.174;2024-01-30T06:24:26;36.55;;;22.52;;
48751;SDS011;34544;48.836;9.174;2024-01-30T06:26:53;31.02;;;18.45;;
48751;SDS011;34544;48.836;9.174;2024-01-30T06:29:18;25.95;;;16.75;;
48751;SDS011;34544;48.836;9.174;2024-01-30T06:31:44;24.48;;;15.10;;
48751;SDS011;34544;48.836;9.174;2024-01-30T06:34:09;25.90;;;16.35;;
48751;SDS011;34544;48.836;9.174;2024-01-30T06:36:37;28.85;;;15.48;;
48751;SDS011;34544;48.836;9.174;2024-01-30T06:39:03;29.05;;;15.07;;
48751;SDS011;34544;48.836;9.174;2024-01-30T06:41:29;22.80;;;12.63;;
48751;SDS011;34544;48.836;9.174;2024-01-30T06:43:55;23.80;;;12.90;;
48751;SDS011;34544;48.836;9.174;2024-01-30T06:46:21;20.20;;;11.20;;
48751;SDS011;34544;48.836;9.174;2024-01-30T06:48:47;19.63;;;11.50;;
48751;SDS011;34544;48.836;9.174;2024-01-30T06:51:13;18.23;;;10.82;;
48751;SDS011;34544;48.836;9.174;2024-01-30T06:53:38;18.38;;;10.98;;
48751;SDS011;34544;48.836;9.174;2024-01-30T06:56:04;20.25;;;10.38;;
48751;SDS011;34544;48.836;9.174;2024-01-30T06:58:30;20.20;;;11.02;;
48751;SDS011;34544;48.836;9.174;2024-01-30T07:00:57;15.95;;;10.18;;
48751;SDS011;34544;48.836;9.174;2024-01-30T07:03:23;17.75;;;10.82;;
48751;SDS011;34544;48.836;9.174;2024-01-30T07:05:49;21.98;;;11.60;;
48751;SDS011;34544;48.836;9.174;2024-01-30T07:08:15;14.85;;;9.35;;
48751;SDS011;34544;48.836;9.174;2024-01-30T07:10:42;22.00;;;10.38;;
48751;SDS011;34544;48.836;9.174;2024-01-30T07:13:08;15.10;;;9.85;;
48751;SDS011;34544;48.836;9.174;2024-01-30T07:15:35;17.75;;;10.95;;
48751;SDS011;34544;48.836;9.174;2024-01-30T07:18:02;19.88;;;11.88;;
48751;SDS011;34544;48.836;9.174;2024-01-30T07:20:28;25.05;;;13.27;;
48751;SDS011;34544;48.836;9.174;2024-01-30T07:22:55;25.48;;;13.38;;
48751;SDS011;34544;48.836;9.174;2024-01-30T07:25:21;19.35;;;12.85;;
48751;SDS011;34544;48.836;9.174;2024-01-30T07:27:51;27.05;;;14.35;;
48751;SDS011;34544;48.836;9.174;2024-01-30T07:30:17;28.30;;;15.75;;
48751;SDS011;34544;48.836;9.174;2024-01-30T07:32:43;24.02;;;13.90;;
48751;SDS011;34544;48.836;9.174;2024-01-30T07:35:09;24.33;;;13.40;;
48751;SDS011;34544;48.836;9.174;2024-01-30T07:37:34;17.85;;;11.18;;
48751;SDS011;34544;48.836;9.174;2024-01-30T07:40:01;21.20;;;11.82;;
48751;SDS011;34544;48.836;9.174;2024-01-30T07:42:27;22.35;;;11.70;;
48751;SDS011;34544;48.836;9.174;2024-01-30T07:44:53;19.58;;;11.02;;
48751;SDS011;34544;48.836;9.174;2024-01-30T07:47:19;20.15;;;11.73;;
48751;SDS011;34544;48.836;9.174;2024-01-30T07:49:44;17.92;;;12.38;;
48751;SDS011;34544;48.836;9.174;2024-01-30T07:52:10;19.60;;;11.30;;
48751;SDS011;34544;48.836;9.174;2024-01-30T07:54:35;18.90;;;10.52;;
48751;SDS011;34544;48.836;9.174;2024-01-30T07:57:04;17.38;;;11.65;;
48751;SDS011;34544;48.836;9.174;2024-01-30T07:59:29;16.48;;;10.43;;
48751;SDS011;34544;48.836;9.174;2024-01-30T08:01:55;19.10;;;10.07;;
48751;SDS011;34544;48.836;9.174;2024-01-30T08:04:21;23.58;;;12.00;;
48751;SDS011;34544;48.836;9.174;2024-01-30T08:06:46;17.52;;;10.88;;
48751;SDS011;34544;48.836;9.174;2024-01-30T08:09:12;16.80;;;11.02;;
48751;SDS011;34544;48.836;9.174;2024-01-30T08:11:37;15.82;;;9.98;;
48751;SDS011;34544;48.836;9.174;2024-01-30T08:14:03;16.08;;;9.82;;
48751;SDS011;34544;48.836;9.174;2024-01-30T08:16:29;18.42;;;9.82;;
48751;SDS011;34544;48.836;9.174;2024-01-30T08:18:55;17.23;;;10.75;;
48751;SDS011;34544;48.836;9.174;2024-01-30T08:21:23;19.55;;;10.07;;
48751;SDS011;34544;48.836;9.174;2024-01-30T08:23:48;18.50;;;9.23;;
48751;SDS011;34544;48.836;9.174;2024-01-30T08:26:14;20.75;;;9.48;;
48751;SDS011;34544;48.836;9.174;2024-01-30T08:28:40;16.60;;;9.15;;
48751;SDS011;34544;48.836;9.174;2024-01-30T08:31:05;15.90;;;9.18;;
48751;SDS011;34544;48.836;9.174;2024-01-30T08:33:31;16.75;;;10.30;;
48751;SDS011;34544;48.836;9.174;2024-01-30T08:35:57;12.60;;;8.13;;
48751;SDS011;34544;48.836;9.174;2024-01-30T08:38:22;13.00;;;10.07;;
48751;SDS011;34544;48.836;9.174;2024-01-30T08:40:48;10.88;;;8.00;;
48751;SDS011;34544;48.836;9.174;2024-01-30T08:43:14;13.50;;;8.68;;
48751;SDS011;34544;48.836;9.174;2024-01-30T08:45:40;17.48;;;9.15;;
48751;SDS011;34544;48.836;9.174;2024-01-30T08:48:07;13.75;;;9.38;;
48751;SDS011;34544;48.836;9.174;2024-01-30T08:50:33;11.65;;;7.57;;
48751;SDS011;34544;48.836;9.174;2024-01-30T08:52:59;11.85;;;9.23;;
48751;SDS011;34544;48.836;9.174;2024-01-30T08:55:25;11.25;;;7.57;;
48751;SDS011;34544;48.836;9.174;2024-01-30T08:57:50;10.88;;;7.65;;
48751;SDS011;34544;48.836;9.174;2024-01-30T09:00:17;13.15;;;7.75;;
48751;SDS011;34544;48.836;9.174;2024-01-30T09:02:43;12.15;;;7.85;;
48751;SDS011;34544;48.836;9.174;2024-01-30T09:05:08;10.07;;;8.02;;
48751;SDS011;34544;48.836;9.174;2024-01-30T09:07:34;14.55;;;8.85;;
48751;SDS011;34544;48.836;9.174;2024-01-30T09:10:00;10.40;;;7.13;;
48751;SDS011;34544;48.836;9.174;2024-01-30T09:12:26;10.80;;;7.13;;
48751;SDS011;34544;48.836;9.174;2024-01-30T09:14:51;15.48;;;7.95;;
48751;SDS011;34544;48.836;9.174;2024-01-30T09:17:18;13.60;;;7.18;;
48751;SDS011;34544;48.836;9.174;2024-01-30T09:19:43;12.70;;;8.18;;
48751;SDS011;34544;48.836;9.174;2024-01-30T09:22:11;18.42;;;8.55;;
48751;SDS011;34544;48.836;9.174;2024-01-30T09:24:36;13.02;;;7.80;;
48751;SDS011;34544;48.836;9.174;2024-01-30T09:27:02;14.05;;;8.40;;
48751;SDS011;34544;48.836;9.174;2024-01-30T09:29:28;12.77;;;8.32;;
48751;SDS011;34544;48.836;9.174;2024-01-30T09:31:53;11.05;;;8.18;;
48751;SDS011;34544;48.836;9.174;2024-01-30T09:34:19;12.82;;;8.98;;
48751;SDS011;34544;48.836;9.174;2024-01-30T09:36:45;12.00;;;7.72;;
48751;SDS011;34544;48.836;9.174;2024-01-30T09:39:10;11.02;;;7.78;;
48751;SDS011;34544;48.836;9.174;2024-01-30T09:41:40;9.43;;;7.43;;
48751;SDS011;34544;48.836;9.174;2024-01-30T09:44:15;11.20;;;8.18;;
48751;SDS011;34544;48.836;9.174;2024-01-30T09:46:41;9.07;;;7.28;;
48751;SDS011;34544;48.836;9.174;2024-01-30T09:49:08;13.65;;;8.90;;
48751;SDS011;34544;48.836;9.174;2024-01-30T09:51:34;12.75;;;7.25;;
48751;SDS011;34544;48.836;9.174;2024-01-30T09:54:01;12.18;;;8.85;;
48751;SDS011;34544;48.836;9.174;2024-01-30T09:56:28;13.60;;;8.43;;
48751;SDS011;34544;48.836;9.174;2024-01-30T09:58:54;15.93;;;8.50;;
48751;SDS011;34544;48.836;9.174;2024-01-30T10:01:19;13.48;;;7.95;;
48751;SDS011;34544;48.836;9.174;2024-01-30T10:03:46;12.10;;;8.60;;
48751;SDS011;34544;48.836;9.174;2024-01-30T10:06:11;14.90;;;8.80;;
48751;SDS011;34544;48.836;9.174;2024-01-30T10:08:37;11.40;;;7.95;;
48751;SDS011;34544;48.836;9.174;2024-01-30T10:11:03;13.93;;;8.45;;
48751;SDS011;34544;48.836;9.174;2024-01-30T10:13:29;17.67;;;8.57;;
48751;SDS011;34544;48.836;9.174;2024-01-30T10:15:55;16.88;;;8.32;;
48751;SDS011;34544;48.836;9.174;2024-01-30T10:18:24;14.90;;;8.23;;
48751;SDS011;34544;48.836;9.174;2024-01-30T10:20:50;15.32;;;8.32;;
48751;SDS011;34544;48.836;9.174;2024-01-30T10:23:16;16.15;;;9.75;;
48751;SDS011;34544;48.836;9.174;2024-01-30T10:25:44;23.13;;;9.25;;
48751;SDS011;34544;48.836;9.174;2024-01-30T10:28:10;13.93;;;8.80;;
48751;SDS011;34544;48.836;9.174;2024-01-30T10:30:36;14.35;;;8.43;;
48751;SDS011;34544;48.836;9.174;2024-01-30T10:33:01;19.77;;;8.10;;
48751;SDS011;34544;48.836;9.174;2024-01-30T10:35:27;10.82;;;7.95;;
48751;SDS011;34544;48.836;9.174;2024-01-30T10:37:53;12.93;;;8.40;;
48751;SDS011;34544;48.836;9.174;2024-01-30T10:40:23;11.93;;;9.48;;
48751;SDS011;34544;48.836;9.174;2024-01-30T10:42:53;22.13;;;8.85;;
48751;SDS011;34544;48.836;9.174;2024-01-30T10:45:20;16.52;;;10.65;;
48751;SDS011;34544;48.836;9.174;2024-01-30T10:47:51;20.27;;;9.57;;
48751;SDS011;34544;48.836;9.174;2024-01-30T10:50:19;16.85;;;9.98;;
48751;SDS011;34544;48.836;9.174;2024-01-30T10:52:45;16.35;;;10.02;;
48751;SDS011;34544;48.836;9.174;2024-01-30T10:55:12;19.67;;;9.45;;
48751;SDS011;34544;48.836;9.174;2024-01-30T10:57:40;22.30;;;10.57;;
48751;SDS011;34544;48.836;9.174;2024-01-30T11:00:10;13.55;;;9.13;;
48751;SDS011;34544;48.836;9.174;2024-01-30T11:02:38;17.70;;;9.20;;
48751;SDS011;34544;48.836;9.174;2024-01-30T11:05:05;15.73;;;9.63;;
48751;SDS011;34544;48.836;9.174;2024-01-30T11:07:31;19.88;;;10.20;;
48751;SDS011;34544;48.836;9.174;2024-01-30T11:12:23;17.50;;;9.25;;
48751;SDS011;34544;48.836;9.174;2024-01-30T11:14:50;11.93;;;8.85;;
48751;SDS011;34544;48.836;9.174;2024-01-30T11:17:50;13.63;;;8.50;;
48751;SDS011;34544;48.836;9.174;2024-01-30T11:20:35;13.50;;;7.88;;
48751;SDS011;34544;48.836;9.174;2024-01-30T11:23:01;16.13;;;8.77;;
48751;SDS011;34544;48.836;9.174;2024-01-30T11:25:31;20.25;;;8.38;;
48751;SDS011;34544;48.836;9.174;2024-01-30T11:27:57;12.18;;;8.77;;
48751;SDS011;34544;48.836;9.174;2024-01-30T11:30:24;11.70;;;8.23;;
48751;SDS011;34544;48.836;9.174;2024-01-30T11:35:39;14.65;;;9.63;;
48751;SDS011;34544;48.836;9.174;2024-01-30T11:38:10;17.38;;;8.80;;
48751;SDS011;34544;48.836;9.174;2024-01-30T11:40:38;12.00;;;8.40;;
48751;SDS011;34544;48.836;9.174;2024-01-30T11:43:05;15.95;;;8.65;;
48751;SDS011;34544;48.836;9.174;2024-01-30T11:45:32;11.65;;;7.50;;
48751;SDS011;34544;48.836;9.174;2024-01-30T11:47:59;15.52;;;9.15;;
48751;SDS011;34544;48.836;9.174;2024-01-30T11:50:26;10.18;;;7.90;;
48751;SDS011;34544;48.836;9.174;2024-01-30T11:52:53;13.77;;;8.55;;
48751;SDS011;34544;48.836;9.174;2024-01-30T11:55:21;13.70;;;8.73;;
48751;SDS011;34544;48.836;9.174;2024-01-30T11:57:47;17.08;;;9.23;;
48751;SDS011;34544;48.836;9.174;2024-01-30T12:00:16;17.33;;;8.65;;
48751;SDS011;34544;48.836;9.174;2024-01-30T12:02:44;16.15;;;8.75;;
48751;SDS011;34544;48.836;9.174;2024-01-30T12:05:14;18.05;;;10.18;;
48751;SDS011;34544;48.836;9.174;2024-01-30T12:07:40;16.20;;;10.07;;
48751;SDS011;34544;48.836;9.174;2024-01-30T12:10:09;19.60;;;10.52;;
48751;SDS011;34544;48.836;9.174;2024-01-30T12:12:34;19.75;;;10.20;;
48751;SDS011;34544;48.836;9.174;2024-01-30T12:15:00;20.23;;;10.73;;
48751;SDS011;34544;48.836;9.174;2024-01-30T12:17:28;15.27;;;9.82;;
48751;SDS011;34544;48.836;9.174;2024-01-30T12:20:07;15.50;;;10.63;;
48751;SDS011;34544;48.836;9.174;2024-01-30T12:22:44;17.42;;;9.80;;
48751;SDS011;34544;48.836;9.174;2024-01-30T12:25:18;18.73;;;9.95;;
48751;SDS011;34544;48.836;9.174;2024-01-30T12:27:52;16.45;;;9.70;;
48751;SDS011;34544;48.836;9.174;2024-01-30T12:30:18;15.43;;;9.27;;
48751;SDS011;34544;48.836;9.174;2024-01-30T12:32:45;17.42;;;8.45;;
48751;SDS011;34544;48.836;9.174;2024-01-30T12:35:13;14.32;;;9.07;;
48751;SDS011;34544;48.836;9.174;2024-01-30T12:37:45;15.98;;;8.82;;
48751;SDS011;34544;48.836;9.174;2024-01-30T12:40:13;18.63;;;8.80;;
48751;SDS011;34544;48.836;9.174;2024-01-30T12:42:40;19.55;;;9.05;;
48751;SDS011;34544;48.836;9.174;2024-01-30T12:45:08;13.88;;;9.25;;
48751;SDS011;34544;48.836;9.174;2024-01-30T12:47:34;15.32;;;9.10;;
48751;SDS011;34544;48.836;9.174;2024-01-30T12:49:59;18.52;;;8.82;;
48751;SDS011;34544;48.836;9.174;2024-01-30T12:52:25;25.20;;;9.45;;
48751;SDS011;34544;48.836;9.174;2024-01-30T12:54:51;12.30;;;8.95;;
48751;SDS011;34544;48.836;9.174;2024-01-30T12:57:17;19.52;;;9.43;;
48751;SDS011;34544;48.836;9.174;2024-01-30T12:59:44;19.10;;;9.32;;
48751;SDS011;34544;48.836;9.174;2024-01-30T13:02:10;18.13;;;10.00;;
48751;SDS011;34544;48.836;9.174;2024-01-30T13:04:37;22.55;;;9.88;;
48751;SDS011;34544;48.836;9.174;2024-01-30T13:07:02;17.42;;;7.75;;
48751;SDS011;34544;48.836;9.174;2024-01-30T13:09:29;10.95;;;7.80;;
48751;SDS011;34544;48.836;9.174;2024-01-30T13:11:57;17.00;;;9.20;;
48751;SDS011;34544;48.836;9.174;2024-01-30T13:14:23;12.55;;;9.02;;
48751;SDS011;34544;48.836;9.174;2024-01-30T13:16:49;15.30;;;8.32;;
48751;SDS011;34544;48.836;9.174;2024-01-30T13:19:16;15.25;;;9.05;;
48751;SDS011;34544;48.836;9.174;2024-01-30T13:21:45;15.50;;;9.32;;
48751;SDS011;34544;48.836;9.174;2024-01-30T13:24:13;11.70;;;8.65;;
48751;SDS011;34544;48.836;9.174;2024-01-30T13:26:40;17.38;;;8.65;;
48751;SDS011;34544;48.836;9.174;2024-01-30T13:29:08;13.20;;;8.85;;
48751;SDS011;34544;48.836;9.174;2024-01-30T13:31:34;11.27;;;7.78;;
48751;SDS011;34544;48.836;9.174;2024-01-30T13:34:00;14.85;;;8.63;;
48751;SDS011;34544;48.836;9.174;2024-01-30T13:36:25;15.68;;;9.73;;
48751;SDS011;34544;48.836;9.174;2024-01-30T13:38:51;13.68;;;9.75;;
48751;SDS011;34544;48.836;9.174;2024-01-30T13:41:17;12.73;;;8.18;;
48751;SDS011;34544;48.836;9.174;2024-01-30T13:43:43;16.48;;;8.13;;
48751;SDS011;34544;48.836;9.174;2024-01-30T13:46:09;13.65;;;9.63;;
48751;SDS011;34544;48.836;9.174;2024-01-30T13:48:35;15.10;;;8.35;;
48751;SDS011;34544;48.836;9.174;2024-01-30T13:51:01;12.88;;;9.57;;
48751;SDS011;34544;48.836;9.174;2024-01-30T13:53:27;15.18;;;8.25;;
48751;SDS011;34544;48.836;9.174;2024-01-30T13:55:53;16.52;;;8.77;;
48751;SDS011;34544;48.836;9.174;2024-01-30T13:58:18;15.18;;;8.40;;
48751;SDS011;34544;48.836;9.174;2024-01-30T14:00:44;11.77;;;7.53;;
48751;SDS011;34544;48.836;9.174;2024-01-30T14:03:10;16.58;;;9.55;;
48751;SDS011;34544;48.836;9.174;2024-01-30T14:05:35;11.73;;;8.38;;
48751;SDS011;34544;48.836;9.174;2024-01-30T14:08:01;18.60;;;9.13;;
48751;SDS011;34544;48.836;9.174;2024-01-30T14:10:26;18.60;;;8.80;;
48751;SDS011;34544;48.836;9.174;2024-01-30T14:12:52;22.75;;;11.60;;
48751;SDS011;34544;48.836;9.174;2024-01-30T14:15:18;17.92;;;9.80;;
48751;SDS011;34544;48.836;9.174;2024-01-30T14:17:44;16.05;;;10.70;;
48751;SDS011;34544;48.836;9.174;2024-01-30T14:20:10;15.68;;;9.32;;
48751;SDS011;34544;48.836;9.174;2024-01-30T14:22:36;16.90;;;9.88;;
48751;SDS011;34544;48.836;9.174;2024-01-30T14:25:02;21.38;;;10.77;;
48751;SDS011;34544;48.836;9.174;2024-01-30T14:27:31;17.17;;;10.07;;
48751;SDS011;34544;48.836;9.174;2024-01-30T14:29:57;18.55;;;10.98;;
48751;SDS011;34544;48.836;9.174;2024-01-30T14:32:23;17.52;;;10.00;;